Airfield :
LOGIN :

Register | Disclaimer

   EN    FR    IT 

 










Legend :    VFR   Marginal VFR   IFR   Intensive IFR   Very Intensive IFR
Visi :
Ceiling :
>= 8 km
>= 3000ft
5 to 8 km
1000 to 3000 ft
1500m to 5 km
500 to 1000 ft
800 to 1500m
200 to 500 ft
< 800m
< 200 ft
Symbols :   Thunderstorms  Fog  Heavy snow  Heavy precipitations  Wind > 20 kt
SIGMETs :     Misc.  Thunderstorms  Icing  Turbulence  Mountain Waves  Volcanic Ashes






- Airport Elevation : 963 ft
- IATA code : TGM


LRTM - Transilvania Târgu Mureş Int.

CURRENT METAR :
  • 030700Z VRB01KT 9999 FEW030 22/17 Q1017

EXPIRED METARs :
  • 030630Z VRB02KT CAVOK 21/17 Q1017
  • 030600Z VRB02KT CAVOK 20/17 Q1017 R07/CLRD//
  • 030530Z VRB01KT CAVOK 18/17 Q1017 R07///////
  • 030500Z 24002KT CAVOK 18/16 Q1017 R07/19//95
  • 030430Z AUTO 26001KT 9999 BKN055/// 17/17 Q1016

TAF TAF LRTM
Valid from the 03 at 06:00 until the 03 at 15:00 UTC


030500Z 0306/0315 VRB04KT CAVOK
TEMPO 0312/0315 SCT040CB
PROB30
TEMPO 0312/0315 VRB20KT -TSRA



MET'MAP, your aeronautical weather chart ! - Copyright ORBIFLY December 2007 - Disclaimer

ORBIFLY MET'MAP TEAM :

Programming & Development : Alexandra Zaïnal
Concept & original design : Baudouin d'Aumeries
Assistance for programming : Marc-Olivier Méhu
Technical & hardware support : Manuel Goepfert

Contact : metmap@orbifly.com




SOURCES & CREDITS :

   NOAA